sensor_id;sensor_type;location;lat;lon;timestamp;P1;durP1;ratioP1;P2;durP2;ratioP2
71042;SDS011;58696;52.134;5.500;2023-02-03T00:02:05;10.43;;;2.20;;
71042;SDS011;58696;52.134;5.500;2023-02-03T00:04:31;8.50;;;2.13;;
71042;SDS011;58696;52.134;5.500;2023-02-03T00:07:02;7.13;;;2.50;;
71042;SDS011;58696;52.134;5.500;2023-02-03T00:09:30;8.98;;;1.85;;
71042;SDS011;58696;52.134;5.500;2023-02-03T00:11:57;8.32;;;2.38;;
71042;SDS011;58696;52.134;5.500;2023-02-03T00:14:23;10.93;;;2.13;;
71042;SDS011;58696;52.134;5.500;2023-02-03T00:16:50;6.50;;;2.15;;
71042;SDS011;58696;52.134;5.500;2023-02-03T00:19:17;10.57;;;2.15;;
71042;SDS011;58696;52.134;5.500;2023-02-03T00:21:44;9.77;;;3.15;;
71042;SDS011;58696;52.134;5.500;2023-02-03T00:24:16;10.70;;;2.17;;
71042;SDS011;58696;52.134;5.500;2023-02-03T00:26:46;13.18;;;2.08;;
71042;SDS011;58696;52.134;5.500;2023-02-03T00:29:14;4.32;;;1.83;;
71042;SDS011;58696;52.134;5.500;2023-02-03T00:31:43;7.35;;;1.67;;
71042;SDS011;58696;52.134;5.500;2023-02-03T00:34:12;3.45;;;1.88;;
71042;SDS011;58696;52.134;5.500;2023-02-03T00:36:40;4.68;;;1.52;;
71042;SDS011;58696;52.134;5.500;2023-02-03T00:39:10;9.68;;;2.08;;
71042;SDS011;58696;52.134;5.500;2023-02-03T00:41:38;10.50;;;1.92;;
71042;SDS011;58696;52.134;5.500;2023-02-03T00:44:05;13.55;;;2.40;;
71042;SDS011;58696;52.134;5.500;2023-02-03T00:46:31;10.45;;;2.47;;
71042;SDS011;58696;52.134;5.500;2023-02-03T00:49:03;11.63;;;2.08;;
71042;SDS011;58696;52.134;5.500;2023-02-03T00:51:34;6.30;;;1.85;;
71042;SDS011;58696;52.134;5.500;2023-02-03T00:54:01;13.65;;;1.65;;
71042;SDS011;58696;52.134;5.500;2023-02-03T00:56:27;4.93;;;1.92;;
71042;SDS011;58696;52.134;5.500;2023-02-03T00:58:57;8.57;;;2.20;;
71042;SDS011;58696;52.134;5.500;2023-02-03T01:01:25;6.15;;;1.90;;
71042;SDS011;58696;52.134;5.500;2023-02-03T01:03:54;5.20;;;1.50;;
71042;SDS011;58696;52.134;5.500;2023-02-03T01:06:22;3.95;;;1.63;;
71042;SDS011;58696;52.134;5.500;2023-02-03T01:08:52;8.75;;;1.65;;
71042;SDS011;58696;52.134;5.500;2023-02-03T01:11:20;7.80;;;2.15;;
71042;SDS011;58696;52.134;5.500;2023-02-03T01:13:50;8.82;;;2.25;;
71042;SDS011;58696;52.134;5.500;2023-02-03T01:16:21;6.55;;;1.77;;
71042;SDS011;58696;52.134;5.500;2023-02-03T01:18:53;6.47;;;1.70;;
71042;SDS011;58696;52.134;5.500;2023-02-03T01:21:23;14.00;;;2.88;;
71042;SDS011;58696;52.134;5.500;2023-02-03T01:23:51;11.23;;;2.17;;
71042;SDS011;58696;52.134;5.500;2023-02-03T01:26:19;5.30;;;1.77;;
71042;SDS011;58696;52.134;5.500;2023-02-03T01:31:19;6.13;;;1.60;;
71042;SDS011;58696;52.134;5.500;2023-02-03T01:33:47;7.80;;;1.55;;
71042;SDS011;58696;52.134;5.500;2023-02-03T01:36:17;8.63;;;1.40;;
71042;SDS011;58696;52.134;5.500;2023-02-03T01:38:44;7.35;;;2.13;;
71042;SDS011;58696;52.134;5.500;2023-02-03T01:41:16;8.20;;;1.80;;
71042;SDS011;58696;52.134;5.500;2023-02-03T01:43:47;10.13;;;1.80;;
71042;SDS011;58696;52.134;5.500;2023-02-03T01:48:52;10.85;;;1.88;;
71042;SDS011;58696;52.134;5.500;2023-02-03T01:51:23;15.07;;;1.90;;
71042;SDS011;58696;52.134;5.500;2023-02-03T01:53:50;9.32;;;1.77;;
71042;SDS011;58696;52.134;5.500;2023-02-03T01:56:20;8.60;;;1.92;;
71042;SDS011;58696;52.134;5.500;2023-02-03T01:58:48;14.52;;;1.92;;
71042;SDS011;58696;52.134;5.500;2023-02-03T02:01:16;8.20;;;1.73;;
71042;SDS011;58696;52.134;5.500;2023-02-03T02:03:46;8.85;;;1.90;;
71042;SDS011;58696;52.134;5.500;2023-02-03T02:06:16;7.05;;;1.25;;
71042;SDS011;58696;52.134;5.500;2023-02-03T02:08:45;4.78;;;1.63;;
71042;SDS011;58696;52.134;5.500;2023-02-03T02:11:14;3.83;;;1.50;;
71042;SDS011;58696;52.134;5.500;2023-02-03T02:13:45;8.35;;;1.42;;
71042;SDS011;58696;52.134;5.500;2023-02-03T02:21:58;6.63;;;1.55;;
71042;SDS011;58696;52.134;5.500;2023-02-03T02:41:07;10.02;;;1.67;;
71042;SDS011;58696;52.134;5.500;2023-02-03T02:46:39;5.32;;;1.30;;
71042;SDS011;58696;52.134;5.500;2023-02-03T02:49:22;4.80;;;1.15;;
71042;SDS011;58696;52.134;5.500;2023-02-03T02:52:04;5.88;;;1.60;;
71042;SDS011;58696;52.134;5.500;2023-02-03T02:54:38;4.55;;;1.33;;
71042;SDS011;58696;52.134;5.500;2023-02-03T02:57:12;4.45;;;1.23;;
71042;SDS011;58696;52.134;5.500;2023-02-03T02:59:40;5.05;;;1.50;;
71042;SDS011;58696;52.134;5.500;2023-02-03T03:02:10;4.85;;;1.27;;
71042;SDS011;58696;52.134;5.500;2023-02-03T03:04:37;12.88;;;1.83;;
71042;SDS011;58696;52.134;5.500;2023-02-03T03:07:07;10.27;;;2.22;;
71042;SDS011;58696;52.134;5.500;2023-02-03T03:09:39;4.88;;;1.30;;
71042;SDS011;58696;52.134;5.500;2023-02-03T03:12:14;6.72;;;1.60;;
71042;SDS011;58696;52.134;5.500;2023-02-03T03:14:49;5.15;;;1.48;;
71042;SDS011;58696;52.134;5.500;2023-02-03T03:17:26;2.50;;;1.02;;
71042;SDS011;58696;52.134;5.500;2023-02-03T03:22:27;6.80;;;1.65;;
71042;SDS011;58696;52.134;5.500;2023-02-03T03:25:00;2.47;;;0.70;;
71042;SDS011;58696;52.134;5.500;2023-02-03T03:27:37;6.72;;;1.17;;
71042;SDS011;58696;52.134;5.500;2023-02-03T03:30:08;6.43;;;1.55;;
71042;SDS011;58696;52.134;5.500;2023-02-03T03:32:39;5.15;;;1.20;;
71042;SDS011;58696;52.134;5.500;2023-02-03T03:35:06;6.38;;;0.98;;
71042;SDS011;58696;52.134;5.500;2023-02-03T03:37:40;5.38;;;1.40;;
71042;SDS011;58696;52.134;5.500;2023-02-03T03:40:17;6.90;;;1.35;;
71042;SDS011;58696;52.134;5.500;2023-02-03T03:42:56;3.63;;;1.35;;
71042;SDS011;58696;52.134;5.500;2023-02-03T03:50:50;5.60;;;1.33;;
71042;SDS011;58696;52.134;5.500;2023-02-03T03:53:24;7.20;;;0.98;;
71042;SDS011;58696;52.134;5.500;2023-02-03T03:55:54;5.93;;;1.50;;
71042;SDS011;58696;52.134;5.500;2023-02-03T03:58:27;7.97;;;1.30;;
71042;SDS011;58696;52.134;5.500;2023-02-03T04:00:57;9.05;;;1.77;;
71042;SDS011;58696;52.134;5.500;2023-02-03T04:07:58;6.95;;;1.67;;
71042;SDS011;58696;52.134;5.500;2023-02-03T04:10:31;6.05;;;1.13;;
71042;SDS011;58696;52.134;5.500;2023-02-03T04:13:00;5.30;;;0.95;;
71042;SDS011;58696;52.134;5.500;2023-02-03T04:15:27;3.70;;;1.10;;
71042;SDS011;58696;52.134;5.500;2023-02-03T04:17:54;8.32;;;1.92;;
71042;SDS011;58696;52.134;5.500;2023-02-03T04:20:24;7.82;;;1.60;;
71042;SDS011;58696;52.134;5.500;2023-02-03T04:22:51;4.03;;;1.40;;
71042;SDS011;58696;52.134;5.500;2023-02-03T04:27:46;5.00;;;1.17;;
71042;SDS011;58696;52.134;5.500;2023-02-03T04:30:13;5.05;;;1.40;;
71042;SDS011;58696;52.134;5.500;2023-02-03T04:32:40;3.63;;;1.42;;
71042;SDS011;58696;52.134;5.500;2023-02-03T04:35:12;2.22;;;0.98;;
71042;SDS011;58696;52.134;5.500;2023-02-03T04:37:39;4.90;;;1.13;;
71042;SDS011;58696;52.134;5.500;2023-02-03T04:40:09;3.42;;;0.88;;
71042;SDS011;58696;52.134;5.500;2023-02-03T04:42:38;6.13;;;1.02;;
71042;SDS011;58696;52.134;5.500;2023-02-03T04:45:05;4.13;;;1.02;;
71042;SDS011;58696;52.134;5.500;2023-02-03T04:47:37;6.35;;;1.15;;
71042;SDS011;58696;52.134;5.500;2023-02-03T04:50:05;3.97;;;1.00;;
71042;SDS011;58696;52.134;5.500;2023-02-03T04:52:32;6.03;;;1.57;;
71042;SDS011;58696;52.134;5.500;2023-02-03T04:54:59;7.50;;;1.25;;
71042;SDS011;58696;52.134;5.500;2023-02-03T04:57:26;7.05;;;1.63;;
71042;SDS011;58696;52.134;5.500;2023-02-03T04:59:52;5.35;;;1.10;;
71042;SDS011;58696;52.134;5.500;2023-02-03T05:02:19;4.32;;;1.20;;
71042;SDS011;58696;52.134;5.500;2023-02-03T05:04:50;6.80;;;1.40;;
71042;SDS011;58696;52.134;5.500;2023-02-03T05:07:19;6.53;;;1.25;;
71042;SDS011;58696;52.134;5.500;2023-02-03T05:09:46;2.88;;;0.70;;
71042;SDS011;58696;52.134;5.500;2023-02-03T05:12:13;6.25;;;1.33;;
71042;SDS011;58696;52.134;5.500;2023-02-03T05:14:42;7.38;;;1.45;;
71042;SDS011;58696;52.134;5.500;2023-02-03T05:17:09;4.13;;;1.52;;
71042;SDS011;58696;52.134;5.500;2023-02-03T05:22:07;5.43;;;1.10;;
71042;SDS011;58696;52.134;5.500;2023-02-03T05:24:33;7.93;;;1.60;;
71042;SDS011;58696;52.134;5.500;2023-02-03T05:27:00;2.53;;;0.80;;
71042;SDS011;58696;52.134;5.500;2023-02-03T05:29:29;4.15;;;1.20;;
71042;SDS011;58696;52.134;5.500;2023-02-03T05:32:00;4.05;;;1.02;;
71042;SDS011;58696;52.134;5.500;2023-02-03T05:34:27;4.13;;;1.40;;
71042;SDS011;58696;52.134;5.500;2023-02-03T05:36:54;4.32;;;0.82;;
71042;SDS011;58696;52.134;5.500;2023-02-03T05:39:23;5.97;;;1.10;;
71042;SDS011;58696;52.134;5.500;2023-02-03T05:41:49;7.57;;;1.20;;
71042;SDS011;58696;52.134;5.500;2023-02-03T05:44:24;9.45;;;1.33;;
71042;SDS011;58696;52.134;5.500;2023-02-03T05:46:53;5.03;;;0.95;;
71042;SDS011;58696;52.134;5.500;2023-02-03T05:49:21;4.70;;;0.90;;
71042;SDS011;58696;52.134;5.500;2023-02-03T05:51:52;7.18;;;1.20;;
71042;SDS011;58696;52.134;5.500;2023-02-03T05:54:20;3.78;;;0.90;;
71042;SDS011;58696;52.134;5.500;2023-02-03T05:56:47;6.45;;;0.98;;
71042;SDS011;58696;52.134;5.500;2023-02-03T05:59:13;7.50;;;1.20;;
71042;SDS011;58696;52.134;5.500;2023-02-03T06:01:40;5.38;;;1.33;;
71042;SDS011;58696;52.134;5.500;2023-02-03T06:04:07;4.47;;;0.90;;
71042;SDS011;58696;52.134;5.500;2023-02-03T06:06:37;4.38;;;1.60;;
71042;SDS011;58696;52.134;5.500;2023-02-03T06:09:05;9.90;;;1.90;;
71042;SDS011;58696;52.134;5.500;2023-02-03T06:11:34;5.78;;;1.40;;
71042;SDS011;58696;52.134;5.500;2023-02-03T06:14:04;8.57;;;1.40;;
71042;SDS011;58696;52.134;5.500;2023-02-03T06:16:33;9.10;;;1.30;;
71042;SDS011;58696;52.134;5.500;2023-02-03T06:18:59;4.32;;;1.38;;
71042;SDS011;58696;52.134;5.500;2023-02-03T06:21:27;7.30;;;1.52;;
71042;SDS011;58696;52.134;5.500;2023-02-03T06:23:54;3.00;;;0.95;;
71042;SDS011;58696;52.134;5.500;2023-02-03T06:26:22;3.42;;;1.25;;
71042;SDS011;58696;52.134;5.500;2023-02-03T06:28:50;4.50;;;1.13;;
71042;SDS011;58696;52.134;5.500;2023-02-03T06:31:17;6.53;;;1.20;;
71042;SDS011;58696;52.134;5.500;2023-02-03T06:33:46;6.88;;;1.08;;
71042;SDS011;58696;52.134;5.500;2023-02-03T06:36:13;7.15;;;1.67;;
71042;SDS011;58696;52.134;5.500;2023-02-03T06:38:40;4.50;;;1.48;;
71042;SDS011;58696;52.134;5.500;2023-02-03T06:41:06;5.85;;;1.40;;
71042;SDS011;58696;52.134;5.500;2023-02-03T06:43:34;4.55;;;1.40;;
71042;SDS011;58696;52.134;5.500;2023-02-03T06:46:02;4.20;;;1.98;;
71042;SDS011;58696;52.134;5.500;2023-02-03T06:48:30;6.22;;;1.77;;
71042;SDS011;58696;52.134;5.500;2023-02-03T06:50:58;7.90;;;1.48;;
71042;SDS011;58696;52.134;5.500;2023-02-03T06:53:25;8.02;;;1.23;;
71042;SDS011;58696;52.134;5.500;2023-02-03T06:55:54;5.90;;;0.88;;
71042;SDS011;58696;52.134;5.500;2023-02-03T06:58:20;6.30;;;1.70;;
71042;SDS011;58696;52.134;5.500;2023-02-03T07:00:47;6.10;;;1.13;;
71042;SDS011;58696;52.134;5.500;2023-02-03T07:03:14;5.70;;;1.20;;
71042;SDS011;58696;52.134;5.500;2023-02-03T07:05:40;5.68;;;1.05;;
71042;SDS011;58696;52.134;5.500;2023-02-03T07:08:07;4.05;;;0.95;;
71042;SDS011;58696;52.134;5.500;2023-02-03T07:10:34;9.75;;;1.20;;
71042;SDS011;58696;52.134;5.500;2023-02-03T07:13:01;5.72;;;1.33;;
71042;SDS011;58696;52.134;5.500;2023-02-03T07:15:31;12.00;;;1.60;;
71042;SDS011;58696;52.134;5.500;2023-02-03T07:17:58;8.35;;;1.52;;
71042;SDS011;58696;52.134;5.500;2023-02-03T07:20:25;10.60;;;1.33;;
71042;SDS011;58696;52.134;5.500;2023-02-03T07:22:56;7.97;;;1.50;;
71042;SDS011;58696;52.134;5.500;2023-02-03T07:27:50;5.10;;;1.10;;
71042;SDS011;58696;52.134;5.500;2023-02-03T07:30:17;4.70;;;1.30;;
71042;SDS011;58696;52.134;5.500;2023-02-03T07:32:47;13.00;;;2.00;;
71042;SDS011;58696;52.134;5.500;2023-02-03T07:35:15;6.72;;;1.55;;
71042;SDS011;58696;52.134;5.500;2023-02-03T07:37:43;6.25;;;1.67;;
71042;SDS011;58696;52.134;5.500;2023-02-03T07:40:11;6.40;;;1.20;;
71042;SDS011;58696;52.134;5.500;2023-02-03T07:45:14;2.95;;;0.80;;
71042;SDS011;58696;52.134;5.500;2023-02-03T07:47:42;6.13;;;1.42;;
71042;SDS011;58696;52.134;5.500;2023-02-03T07:50:09;12.68;;;1.50;;
71042;SDS011;58696;52.134;5.500;2023-02-03T07:52:40;5.05;;;1.50;;
71042;SDS011;58696;52.134;5.500;2023-02-03T07:55:09;7.05;;;1.45;;
71042;SDS011;58696;52.134;5.500;2023-02-03T07:57:36;2.65;;;0.93;;
71042;SDS011;58696;52.134;5.500;2023-02-03T08:00:03;5.80;;;1.58;;
71042;SDS011;58696;52.134;5.500;2023-02-03T08:02:30;7.00;;;1.88;;
71042;SDS011;58696;52.134;5.500;2023-02-03T08:04:57;5.03;;;1.17;;
71042;SDS011;58696;52.134;5.500;2023-02-03T08:07:24;7.43;;;1.55;;
71042;SDS011;58696;52.134;5.500;2023-02-03T08:09:51;10.07;;;1.45;;
71042;SDS011;58696;52.134;5.500;2023-02-03T08:12:19;9.52;;;1.73;;
71042;SDS011;58696;52.134;5.500;2023-02-03T08:14:48;8.68;;;1.70;;
71042;SDS011;58696;52.134;5.500;2023-02-03T08:17:15;7.45;;;1.08;;
71042;SDS011;58696;52.134;5.500;2023-02-03T08:19:43;6.03;;;1.30;;
71042;SDS011;58696;52.134;5.500;2023-02-03T08:22:10;10.95;;;1.48;;
71042;SDS011;58696;52.134;5.500;2023-02-03T08:24:44;11.55;;;1.80;;
71042;SDS011;58696;52.134;5.500;2023-02-03T08:27:12;5.00;;;1.17;;
71042;SDS011;58696;52.134;5.500;2023-02-03T08:29:44;6.50;;;1.85;;
71042;SDS011;58696;52.134;5.500;2023-02-03T08:32:12;8.63;;;2.07;;
71042;SDS011;58696;52.134;5.500;2023-02-03T08:34:40;5.20;;;1.35;;
71042;SDS011;58696;52.134;5.500;2023-02-03T08:37:07;6.45;;;1.38;;
71042;SDS011;58696;52.134;5.500;2023-02-03T08:39:41;8.93;;;1.98;;
71042;SDS011;58696;52.134;5.500;2023-02-03T08:42:09;6.78;;;1.85;;
71042;SDS011;58696;52.134;5.500;2023-02-03T08:44:36;4.88;;;1.40;;
71042;SDS011;58696;52.134;5.500;2023-02-03T08:47:06;9.65;;;1.85;;
71042;SDS011;58696;52.134;5.500;2023-02-03T08:49:33;9.45;;;1.50;;
71042;SDS011;58696;52.134;5.500;2023-02-03T08:52:01;6.40;;;1.13;;
71042;SDS011;58696;52.134;5.500;2023-02-03T08:54:28;7.43;;;1.33;;
71042;SDS011;58696;52.134;5.500;2023-02-03T08:56:55;5.90;;;1.60;;
71042;SDS011;58696;52.134;5.500;2023-02-03T08:59:24;3.88;;;1.13;;
71042;SDS011;58696;52.134;5.500;2023-02-03T09:01:53;6.13;;;1.10;;
71042;SDS011;58696;52.134;5.500;2023-02-03T09:04:20;10.07;;;2.00;;
71042;SDS011;58696;52.134;5.500;2023-02-03T09:06:52;16.83;;;2.20;;
71042;SDS011;58696;52.134;5.500;2023-02-03T09:09:20;10.75;;;1.35;;
71042;SDS011;58696;52.134;5.500;2023-02-03T09:11:48;4.05;;;1.48;;
71042;SDS011;58696;52.134;5.500;2023-02-03T09:14:15;10.13;;;1.70;;
71042;SDS011;58696;52.134;5.500;2023-02-03T09:16:42;7.20;;;1.73;;
71042;SDS011;58696;52.134;5.500;2023-02-03T09:21:40;11.45;;;1.85;;
71042;SDS011;58696;52.134;5.500;2023-02-03T09:24:11;5.32;;;1.30;;
71042;SDS011;58696;52.134;5.500;2023-02-03T09:26:41;10.15;;;1.95;;
71042;SDS011;58696;52.134;5.500;2023-02-03T09:29:10;10.10;;;1.88;;
71042;SDS011;58696;52.134;5.500;2023-02-03T09:31:37;11.00;;;1.73;;
71042;SDS011;58696;52.134;5.500;2023-02-03T09:34:04;10.98;;;1.52;;
71042;SDS011;58696;52.134;5.500;2023-02-03T09:36:31;9.33;;;1.17;;
71042;SDS011;58696;52.134;5.500;2023-02-03T09:38:58;3.35;;;1.00;;
71042;SDS011;58696;52.134;5.500;2023-02-03T09:41:35;9.38;;;1.85;;
71042;SDS011;58696;52.134;5.500;2023-02-03T09:44:55;4.95;;;1.23;;
71042;SDS011;58696;52.134;5.500;2023-02-03T09:47:39;3.72;;;1.08;;
71042;SDS011;58696;52.134;5.500;2023-02-03T09:50:13;4.82;;;1.33;;
71042;SDS011;58696;52.134;5.500;2023-02-03T09:52:50;5.57;;;1.50;;
71042;SDS011;58696;52.134;5.500;2023-02-03T09:57:57;5.40;;;1.60;;
71042;SDS011;58696;52.134;5.500;2023-02-03T10:00:34;4.30;;;1.45;;
71042;SDS011;58696;52.134;5.500;2023-02-03T10:03:06;11.55;;;1.90;;
71042;SDS011;58696;52.134;5.500;2023-02-03T10:05:46;6.38;;;1.50;;
71042;SDS011;58696;52.134;5.500;2023-02-03T10:11:23;8.80;;;1.50;;
71042;SDS011;58696;52.134;5.500;2023-02-03T10:19:54;5.30;;;1.65;;
71042;SDS011;58696;52.134;5.500;2023-02-03T10:22:26;10.95;;;1.67;;
71042;SDS011;58696;52.134;5.500;2023-02-03T10:27:31;6.88;;;1.65;;
71042;SDS011;58696;52.134;5.500;2023-02-03T10:30:04;4.70;;;1.33;;
71042;SDS011;58696;52.134;5.500;2023-02-03T10:32:33;14.73;;;2.15;;
71042;SDS011;58696;52.134;5.500;2023-02-03T10:35:04;8.75;;;1.40;;
71042;SDS011;58696;52.134;5.500;2023-02-03T10:37:42;6.25;;;0.98;;
71042;SDS011;58696;52.134;5.500;2023-02-03T10:40:15;5.97;;;1.20;;
71042;SDS011;58696;52.134;5.500;2023-02-03T10:42:43;3.75;;;1.42;;
71042;SDS011;58696;52.134;5.500;2023-02-03T10:45:38;9.50;;;1.73;;
71042;SDS011;58696;52.134;5.500;2023-02-03T10:48:10;3.63;;;1.25;;
71042;SDS011;58696;52.134;5.500;2023-02-03T10:50:45;5.40;;;1.55;;
71042;SDS011;58696;52.134;5.500;2023-02-03T10:55:46;6.65;;;2.17;;
71042;SDS011;58696;52.134;5.500;2023-02-03T10:58:25;3.58;;;1.30;;
71042;SDS011;58696;52.134;5.500;2023-02-03T11:01:02;6.45;;;1.48;;
71042;SDS011;58696;52.134;5.500;2023-02-03T11:03:32;8.48;;;1.75;;
71042;SDS011;58696;52.134;5.500;2023-02-03T11:06:06;8.60;;;1.50;;
71042;SDS011;58696;52.134;5.500;2023-02-03T11:08:37;5.20;;;1.33;;
71042;SDS011;58696;52.134;5.500;2023-02-03T11:11:07;3.92;;;1.08;;
71042;SDS011;58696;52.134;5.500;2023-02-03T11:13:45;11.27;;;1.67;;
71042;SDS011;58696;52.134;5.500;2023-02-03T11:16:19;5.45;;;1.38;;
71042;SDS011;58696;52.134;5.500;2023-02-03T11:18:54;9.68;;;1.90;;
71042;SDS011;58696;52.134;5.500;2023-02-03T11:24:20;9.20;;;2.88;;
71042;SDS011;58696;52.134;5.500;2023-02-03T11:26:50;7.18;;;1.77;;
71042;SDS011;58696;52.134;5.500;2023-02-03T11:29:22;3.83;;;0.88;;
71042;SDS011;58696;52.134;5.500;2023-02-03T11:31:50;4.07;;;1.42;;
71042;SDS011;58696;52.134;5.500;2023-02-03T11:42:33;3.00;;;1.10;;
71042;SDS011;58696;52.134;5.500;2023-02-03T11:47:48;5.80;;;1.40;;
71042;SDS011;58696;52.134;5.500;2023-02-03T12:04:20;3.40;;;1.05;;
71042;SDS011;58696;52.134;5.500;2023-02-03T12:12:21;6.15;;;1.85;;
71042;SDS011;58696;52.134;5.500;2023-02-03T12:22:42;7.72;;;2.30;;
71042;SDS011;58696;52.134;5.500;2023-02-03T12:25:26;5.70;;;1.55;;
71042;SDS011;58696;52.134;5.500;2023-02-03T12:31:11;8.10;;;1.67;;
71042;SDS011;58696;52.134;5.500;2023-02-03T12:36:40;10.15;;;1.92;;
71042;SDS011;58696;52.134;5.500;2023-02-03T12:39:16;5.85;;;1.98;;
71042;SDS011;58696;52.134;5.500;2023-02-03T12:42:02;15.15;;;2.13;;
71042;SDS011;58696;52.134;5.500;2023-02-03T12:44:54;12.48;;;2.20;;
71042;SDS011;58696;52.134;5.500;2023-02-03T12:47:48;11.60;;;3.00;;
71042;SDS011;58696;52.134;5.500;2023-02-03T12:50:37;24.05;;;2.22;;
71042;SDS011;58696;52.134;5.500;2023-02-03T12:53:28;5.40;;;1.42;;
71042;SDS011;58696;52.134;5.500;2023-02-03T12:58:56;9.63;;;1.73;;
71042;SDS011;58696;52.134;5.500;2023-02-03T13:01:41;22.92;;;3.67;;
71042;SDS011;58696;52.134;5.500;2023-02-03T13:07:11;16.02;;;2.80;;
71042;SDS011;58696;52.134;5.500;2023-02-03T13:09:43;11.68;;;3.10;;
71042;SDS011;58696;52.134;5.500;2023-02-03T13:14:49;8.10;;;2.78;;
71042;SDS011;58696;52.134;5.500;2023-02-03T13:17:28;12.40;;;2.70;;
71042;SDS011;58696;52.134;5.500;2023-02-03T13:20:04;6.25;;;1.88;;
71042;SDS011;58696;52.134;5.500;2023-02-03T13:22:41;8.82;;;2.15;;
71042;SDS011;58696;52.134;5.500;2023-02-03T13:25:13;13.18;;;2.95;;
71042;SDS011;58696;52.134;5.500;2023-02-03T13:33:10;11.88;;;2.60;;
71042;SDS011;58696;52.134;5.500;2023-02-03T13:41:30;20.23;;;3.20;;
71042;SDS011;58696;52.134;5.500;2023-02-03T13:44:10;10.25;;;2.70;;
71042;SDS011;58696;52.134;5.500;2023-02-03T13:46:41;15.10;;;2.45;;
71042;SDS011;58696;52.134;5.500;2023-02-03T13:49:09;3.95;;;1.45;;
71042;SDS011;58696;52.134;5.500;2023-02-03T13:51:47;13.32;;;2.65;;
71042;SDS011;58696;52.134;5.500;2023-02-03T13:54:15;18.60;;;2.55;;
71042;SDS011;58696;52.134;5.500;2023-02-03T13:56:57;19.13;;;2.38;;
71042;SDS011;58696;52.134;5.500;2023-02-03T13:59:41;19.75;;;3.38;;
71042;SDS011;58696;52.134;5.500;2023-02-03T14:07:53;17.52;;;3.53;;
71042;SDS011;58696;52.134;5.500;2023-02-03T14:10:04;16.80;;;3.05;;
71042;SDS011;58696;52.134;5.500;2023-02-03T14:18:00;21.35;;;3.85;;
71042;SDS011;58696;52.134;5.500;2023-02-03T14:25:45;19.67;;;3.22;;
71042;SDS011;58696;52.134;5.500;2023-02-03T14:28:27;19.23;;;3.58;;
71042;SDS011;58696;52.134;5.500;2023-02-03T14:31:05;24.77;;;3.88;;
71042;SDS011;58696;52.134;5.500;2023-02-03T14:39:46;23.02;;;4.03;;
71042;SDS011;58696;52.134;5.500;2023-02-03T14:47:43;21.98;;;4.57;;
71042;SDS011;58696;52.134;5.500;2023-02-03T15:00:24;15.65;;;3.45;;
71042;SDS011;58696;52.134;5.500;2023-02-03T15:02:31;19.30;;;3.55;;
71042;SDS011;58696;52.134;5.500;2023-02-03T15:10:12;14.88;;;3.13;;
71042;SDS011;58696;52.134;5.500;2023-02-03T15:13:23;15.52;;;3.75;;
71042;SDS011;58696;52.134;5.500;2023-02-03T15:16:02;20.33;;;3.33;;
71042;SDS011;58696;52.134;5.500;2023-02-03T15:18:35;14.77;;;3.17;;
71042;SDS011;58696;52.134;5.500;2023-02-03T15:21:13;19.23;;;3.35;;
71042;SDS011;58696;52.134;5.500;2023-02-03T15:23:42;21.55;;;3.75;;
71042;SDS011;58696;52.134;5.500;2023-02-03T15:26:14;28.52;;;4.18;;
71042;SDS011;58696;52.134;5.500;2023-02-03T15:29:00;14.02;;;3.08;;
71042;SDS011;58696;52.134;5.500;2023-02-03T15:31:36;20.50;;;3.28;;
71042;SDS011;58696;52.134;5.500;2023-02-03T15:36:49;15.77;;;2.97;;
71042;SDS011;58696;52.134;5.500;2023-02-03T15:42:06;18.02;;;3.70;;
71042;SDS011;58696;52.134;5.500;2023-02-03T15:44:52;18.73;;;3.85;;
71042;SDS011;58696;52.134;5.500;2023-02-03T15:47:37;26.90;;;5.53;;
71042;SDS011;58696;52.134;5.500;2023-02-03T15:52:58;21.33;;;6.63;;
71042;SDS011;58696;52.134;5.500;2023-02-03T15:56:15;18.85;;;3.75;;
71042;SDS011;58696;52.134;5.500;2023-02-03T15:58:51;15.77;;;4.45;;
71042;SDS011;58696;52.134;5.500;2023-02-03T16:01:20;22.23;;;4.00;;
71042;SDS011;58696;52.134;5.500;2023-02-03T16:03:54;17.45;;;3.25;;
71042;SDS011;58696;52.134;5.500;2023-02-03T16:06:28;23.10;;;4.13;;
71042;SDS011;58696;52.134;5.500;2023-02-03T16:09:02;19.38;;;4.13;;
71042;SDS011;58696;52.134;5.500;2023-02-03T16:11:33;31.15;;;6.70;;
71042;SDS011;58696;52.134;5.500;2023-02-03T16:14:10;25.42;;;5.43;;
71042;SDS011;58696;52.134;5.500;2023-02-03T16:16:41;17.75;;;3.92;;
71042;SDS011;58696;52.134;5.500;2023-02-03T16:19:24;14.07;;;3.65;;
71042;SDS011;58696;52.134;5.500;2023-02-03T16:21:54;21.75;;;5.03;;
71042;SDS011;58696;52.134;5.500;2023-02-03T16:29:46;22.10;;;4.50;;
71042;SDS011;58696;52.134;5.500;2023-02-03T16:32:32;16.98;;;3.17;;
71042;SDS011;58696;52.134;5.500;2023-02-03T16:35:17;14.43;;;3.45;;
71042;SDS011;58696;52.134;5.500;2023-02-03T16:38:06;17.77;;;3.28;;
71042;SDS011;58696;52.134;5.500;2023-02-03T16:40:57;20.67;;;3.60;;
71042;SDS011;58696;52.134;5.500;2023-02-03T16:43:43;27.08;;;3.55;;
71042;SDS011;58696;52.134;5.500;2023-02-03T16:46:29;18.13;;;3.05;;
71042;SDS011;58696;52.134;5.500;2023-02-03T16:49:14;16.58;;;3.25;;
71042;SDS011;58696;52.134;5.500;2023-02-03T16:52:02;14.95;;;5.07;;
71042;SDS011;58696;52.134;5.500;2023-02-03T16:54:29;25.85;;;4.10;;
71042;SDS011;58696;52.134;5.500;2023-02-03T16:56:56;28.77;;;4.03;;
71042;SDS011;58696;52.134;5.500;2023-02-03T16:59:24;25.70;;;3.88;;
71042;SDS011;58696;52.134;5.500;2023-02-03T17:01:50;13.40;;;2.95;;
71042;SDS011;58696;52.134;5.500;2023-02-03T17:04:17;28.00;;;4.28;;
71042;SDS011;58696;52.134;5.500;2023-02-03T17:06:44;19.42;;;4.05;;
71042;SDS011;58696;52.134;5.500;2023-02-03T17:09:16;18.10;;;3.60;;
71042;SDS011;58696;52.134;5.500;2023-02-03T17:11:50;22.15;;;4.47;;
71042;SDS011;58696;52.134;5.500;2023-02-03T17:14:17;24.20;;;4.45;;
71042;SDS011;58696;52.134;5.500;2023-02-03T17:16:43;23.88;;;5.10;;
71042;SDS011;58696;52.134;5.500;2023-02-03T17:19:11;17.50;;;3.85;;
71042;SDS011;58696;52.134;5.500;2023-02-03T17:21:38;30.05;;;4.30;;
71042;SDS011;58696;52.134;5.500;2023-02-03T17:24:05;24.17;;;4.90;;
71042;SDS011;58696;52.134;5.500;2023-02-03T17:26:33;21.00;;;4.30;;
71042;SDS011;58696;52.134;5.500;2023-02-03T17:29:00;26.17;;;5.60;;
71042;SDS011;58696;52.134;5.500;2023-02-03T17:31:29;21.50;;;3.95;;
71042;SDS011;58696;52.134;5.500;2023-02-03T17:36:25;22.48;;;3.80;;
71042;SDS011;58696;52.134;5.500;2023-02-03T17:38:53;27.42;;;4.63;;
71042;SDS011;58696;52.134;5.500;2023-02-03T17:41:39;15.43;;;3.83;;
71042;SDS011;58696;52.134;5.500;2023-02-03T17:44:23;15.52;;;3.38;;
71042;SDS011;58696;52.134;5.500;2023-02-03T17:47:08;12.60;;;2.58;;
71042;SDS011;58696;52.134;5.500;2023-02-03T17:49:53;22.88;;;4.63;;
71042;SDS011;58696;52.134;5.500;2023-02-03T17:52:37;25.63;;;4.10;;
71042;SDS011;58696;52.134;5.500;2023-02-03T17:55:21;16.92;;;4.53;;
71042;SDS011;58696;52.134;5.500;2023-02-03T17:57:47;21.33;;;3.50;;
71042;SDS011;58696;52.134;5.500;2023-02-03T18:00:14;22.15;;;3.78;;
71042;SDS011;58696;52.134;5.500;2023-02-03T18:02:41;24.52;;;4.43;;
71042;SDS011;58696;52.134;5.500;2023-02-03T18:05:08;21.15;;;3.83;;
71042;SDS011;58696;52.134;5.500;2023-02-03T18:07:44;12.75;;;3.63;;
71042;SDS011;58696;52.134;5.500;2023-02-03T18:10:10;18.80;;;3.35;;
71042;SDS011;58696;52.134;5.500;2023-02-03T18:12:39;23.75;;;3.97;;
71042;SDS011;58696;52.134;5.500;2023-02-03T18:15:06;26.73;;;3.83;;
71042;SDS011;58696;52.134;5.500;2023-02-03T18:17:34;22.42;;;5.10;;
71042;SDS011;58696;52.134;5.500;2023-02-03T18:20:01;23.83;;;3.50;;
71042;SDS011;58696;52.134;5.500;2023-02-03T18:22:32;19.83;;;3.80;;
71042;SDS011;58696;52.134;5.500;2023-02-03T18:25:00;21.17;;;3.80;;
71042;SDS011;58696;52.134;5.500;2023-02-03T18:27:29;22.80;;;4.03;;